Latest Coastal Weather Observations for Norfolk Island

IDN60701

Issued at 1:31 pm EST Tuesday 4 August 2015 (issued every 10 minutes, with the page automatically refreshed every 10 minutes)

About coastal observations | Map of coastal stations | Coastal observations for NSW | Marine services | Other Formats
Station Details ID: 200288 Name: NORFOLK ISLAND AERO Lat: -29.04 Lon: 167.94 Height: 111.73 m
Data from the previous 72 hours. | See also: Recent months at Norfolk Island
Date/Time
EST
Temp

°C
Wind Pressure Rain
since 9am
mm
Weather Cloud Vis
km
Sea
Height
m
Swell
Dir
 
Speed
knots
Gust
knots
hPa Trend Height
m
Period
s
Dir
04/01:30pm 19.4 NNE 15 20 1017.7 - 0.0 - Mostly clear 10 - - - -
04/01:00pm 19.5 N 11 18 1017.8 - 0.0 - Mostly clear 10 - - - -
04/12:30pm 20.2 N 10 17 1018.0 - 0.0 - Mostly clear 10 - - - -
04/12:00pm 19.8 N 15 26 1018.4 - 0.0 - Mostly clear 10 - - - -
04/11:30am 19.5 N 12 20 1018.8 - 0.0 - Mostly clear 10 - - - -
04/11:00am 19.9 N 11 17 1019.1 - 0.0 - Mostly clear 10 - - - -
04/10:30am 20.2 N 13 21 1019.5 F 0.0 Fine Mostly clear 40 - - - -
04/10:00am 19.9 N 12 19 1019.9 - 0.0 - Mostly clear 10 - - - -
04/09:30am 19.8 N 13 20 1020.4 - 0.0 - - 10 - - - -
04/09:00am 19.7 N 8 15 1020.4 - 0.0 - Mostly clear 10 - - - -
04/08:30am 19.4 N 9 15 1020.8 - 0.0 - Mostly clear 10 - - - -
04/08:00am 19.3 N 8 14 1020.8 - 0.0 - Mostly clear 10 - - - -
04/07:30am 18.7 N 9 14 1020.5 F 0.0 Fine Mostly clear 40 - - - -
04/07:00am 18.7 N 9 14 1020.9 - 0.0 - Mostly clear 10 - - - -
04/06:30am 17.8 N 8 14 1020.9 - 0.0 - Mostly clear 10 - - - -
04/06:00am 17.0 NNE 9 15 1020.8 - 0.0 - Mostly clear 10 - - - -
04/05:30am 17.2 N 7 11 1020.6 - 0.0 - Mostly clear 10 - - - -
04/05:00am 17.3 N 6 9 1020.7 - 0.0 - Partly cloudy 10 - - - -
04/04:30am 17.0 NNE 9 14 1020.5 - 0.0 - Mostly cloudy 10 - - - -
04/04:00am 16.7 N 8 12 1020.6 - 0.0 - Partly cloudy 10 - - - -
04/03:30am 16.7 N 9 15 1020.6 - 0.0 - Cloudy 10 - - - -
04/03:00am 16.9 N 10 18 1020.6 - 0.0 - Cloudy 10 - - - -
04/02:30am 16.9 N 9 15 1020.6 - 0.0 - Partly cloudy 10 - - - -
04/02:00am 16.6 NNE 11 18 1020.8 - 0.0 - Partly cloudy 10 - - - -
04/01:30am 16.5 NNE 11 18 1020.9 - 0.0 - - 10 - - - -
04/01:00am 16.8 NNE 10 16 1021.0 - 0.0 - Partly cloudy 10 - - - -
04/12:30am 17.1 NNE 10 15 1021.2 - 0.0 - - 10 - - - -
04/12:00am 17.1 N 10 17 1021.3 - 0.0 - - 10 - - - -
 
Date/Time
EST
Temp

°C
Wind Pressure Rain
since 9am
mm
Weather Cloud Vis
km
Sea
Height
m
Swell
Dir
 
Speed
knots
Gust
knots
hPa Trend Height
m
Period
s
Dir
03/11:30pm 16.8 NNE 9 14 1021.8 - 0.0 - - 10 - - - -
03/11:00pm 17.0 N 7 13 1022.3 - 0.0 - - 10 - - - -
03/10:30pm 17.0 N 9 17 1022.2 - 0.0 - Mostly clear 10 - - - -
03/10:00pm 17.0 N 8 12 1022.5 - 0.0 - - 10 - - - -
03/09:30pm 16.8 N 8 11 1022.7 - 0.0 - - 10 - - - -
03/09:00pm 17.2 NNE 9 14 1022.7 - 0.0 - Partly cloudy 10 - - - -
03/08:30pm 17.2 NNE 8 13 1022.7 - 0.0 - Partly cloudy 10 - - - -
03/08:00pm 17.2 N 6 8 1023.1 - 0.0 - Partly cloudy 10 - - - -
03/07:30pm 16.4 N 6 8 1022.8 - 0.0 - Mostly clear 10 - - - -
03/07:00pm 16.6 NNE 6 10 1023.2 - 0.0 - - 10 - - - -
03/06:30pm 16.3 N 7 10 1023.1 - 0.0 - - 10 - - - -
03/06:00pm 16.8 N 8 12 1022.8 - 0.0 - - 10 - - - -
03/05:30pm 16.8 NNE 7 11 1022.7 - 0.0 - - 10 - - - -
03/05:00pm 17.5 N 5 9 1022.8 - 0.0 - Cloudy 10 - - - -
03/04:30pm 17.4 N 6 8 1022.5 F 0.0 Distant precip. Mostly cloudy 40 - - - -
03/04:00pm 17.6 N 7 9 1022.3 - 0.0 - Mostly clear 10 - - - -
03/03:30pm 17.6 N 6 11 1022.3 - 0.0 - Mostly clear 10 - - - -
03/03:00pm 18.4 NNE 8 12 1022.3 - 0.0 - Mostly clear 10 - - - -
03/02:30pm 18.5 N 7 11 1022.6 - 0.0 - Mostly clear 10 - - - -
03/02:00pm 18.8 N 6 9 1022.6 - 0.0 - Mostly clear 10 - - - -
03/01:30pm 19.4 N 10 16 1022.1 F 0.0 Fine Mostly clear 40 - - - -
03/01:00pm 19.5 N 12 18 1022.4 - 0.0 - Mostly clear 10 - - - -
03/12:30pm 19.8 N 11 18 1022.6 - 0.0 - Mostly clear 10 - - - -
03/12:00pm 18.9 NNE 10 15 1022.8 - 0.0 - Mostly clear 10 - - - -
03/11:30am 19.0 NNE 9 14 1023.3 - 0.0 - Mostly clear 10 - - - -
03/11:00am 19.1 N 7 12 1024.0 - 0.0 - Mostly clear 10 - - - -
03/10:30am 18.5 N 8 15 1024.4 F 0.0 Fine Mostly cloudy 40 - - - -
03/10:00am 18.5 NNE 9 15 1024.9 - 0.0 - Mostly clear 10 - - - -
03/09:30am 18.2 NNE 9 15 1025.2 - 0.0 - Mostly clear 10 - - - -
03/09:00am 18.6 NNE 11 18 1025.1 - 0.0 - Mostly clear 10 - - - -
03/08:30am 18.7 NNE 11 17 1025.1 - 0.0 - Mostly clear 10 - - - -
03/08:00am 18.5 NNE 10 15 1025.2 - 0.0 - Mostly clear 10 - - - -
03/07:30am 17.9 NE 9 15 1025.0 F 0.0 Fine Mostly clear 40 - - - -
03/07:00am 18.0 NNE 8 17 1025.1 - 0.0 - Mostly clear 10 - - - -
03/06:30am 16.8 NNE 7 11 1025.1 - 0.0 - Mostly clear 10 - - - -
03/06:00am 16.7 NNE 9 12 1024.9 - 0.0 - Mostly clear 10 - - - -
03/05:30am 16.6 NNE 7 10 1024.8 - 0.0 - Mostly clear 10 - - - -
03/05:00am 16.8 NNE 8 13 1024.6 - 0.0 - - 10 - - - -
03/04:30am 16.8 NE 7 10 1024.4 - 0.0 - Mostly cloudy 10 - - - -
03/04:00am 16.3 NNE 6 9 1024.6 - 0.0 - - 10 - - - -
03/03:30am 16.3 NNE 7 12 1024.5 - 0.0 - Partly cloudy 10 - - - -
03/03:00am 16.0 NNE 5 6 1024.8 - 0.0 - Partly cloudy 10 - - - -
03/02:30am 16.5 NNE 7 13 1025.1 - 0.0 - Partly cloudy 10 - - - -
03/02:00am 16.2 NE 6 8 1025.2 - 0.0 - - 10 - - - -
03/01:30am 15.3 ENE 5 8 1025.2 - 0.0 - Partly cloudy 10 - - - -
03/01:00am 14.9 ENE 4 6 1025.6 - 0.0 - - 10 - - - -
03/12:30am 16.0 NE 6 10 1026.0 - 0.0 - Partly cloudy 10 - - - -
03/12:00am 15.7 ENE 4 6 1026.2 - 0.0 - - 10 - - - -
 
Date/Time
EST
Temp

°C
Wind Pressure Rain
since 9am
mm
Weather Cloud Vis
km
Sea
Height
m
Swell
Dir
 
Speed
knots
Gust
knots
hPa Trend Height
m
Period
s
Dir
02/11:30pm 15.4 NE 5 7 1026.3 - 0.0 - - 10 - - - -
02/11:00pm 15.6 NE 5 7 1026.4 - 0.0 - Partly cloudy 10 - - - -
02/10:30pm 15.2 ENE 5 6 1026.3 - 0.0 - Partly cloudy 10 - - - -
02/10:00pm 15.5 NE 5 6 1026.6 - 0.0 - Partly cloudy 10 - - - -
02/09:30pm 15.6 NE 5 7 1026.4 - 0.0 - Partly cloudy 10 - - - -
02/09:00pm 15.0 NE 4 6 1026.4 - 0.0 - Partly cloudy 10 - - - -
02/08:30pm 15.1 ENE 5 6 1026.4 - 0.0 - - 10 - - - -
02/08:00pm 14.9 NE 6 7 1026.4 - 0.0 - - 10 - - - -
02/07:30pm 15.5 NE 5 6 1026.2 - 0.0 - - 10 - - - -
02/07:00pm 16.0 NE 6 8 1026.1 - 0.0 - - 10 - - - -
02/06:30pm 15.8 NE 6 7 1026.2 - 0.0 - - 10 - - - -
02/06:00pm 15.9 NNE 4 5 1026.1 - 0.0 - Partly cloudy 10 - - - -
02/05:30pm 15.8 NE 5 6 1025.9 - 0.0 - Partly cloudy 10 - - - -
02/05:00pm 16.7 NE 6 7 1025.7 - 0.0 - - 10 - - - -
02/04:30pm 16.9 NE 6 8 1025.2 R 0.0 Distant precip. Mostly clear 40 - - - -
02/04:00pm 17.4 NE 8 11 1024.8 - 0.0 - Mostly clear 10 - - - -
02/03:30pm 18.0 NE 7 10 1024.7 - 0.0 - Mostly clear 10 - - - -
02/03:00pm 18.6 NNE 8 11 1024.7 - 0.0 - Mostly clear 10 - - - -
02/02:30pm 18.1 NNE 8 12 1024.7 - 0.0 - Mostly clear 10 - - - -
02/02:00pm 18.3 NNE 9 14 1024.6 - 0.0 - - 10 - - - -
02/01:30pm 18.3 NE 8 12 1024.5 S 0.0 Fine Mostly clear 40 - - - -
02/01:00pm 18.5 NE 9 14 1024.9 - 0.0 - Mostly clear 10 - - - -
02/12:30pm 19.6 NE 9 14 1025.0 - 0.0 - Mostly clear 10 - - - -
02/12:00pm 18.5 NE 6 9 1025.3 - 0.0 - Mostly clear 10 - - - -
02/11:30am 17.9 NE 7 11 1025.7 - 0.0 - Mostly clear 10 - - - -
02/11:00am 18.5 E 7 10 1026.0 - 0.0 - Mostly clear 10 - - - -
02/10:30am 17.6 ENE 6 7 1026.3 F 0.0 Showers Mostly cloudy 40 - - - -
02/10:00am 17.5 NE 5 7 1026.7 - 0.0 - Mostly clear 10 - - - -
02/09:30am 16.1 NNE 6 9 1026.9 - 0.0 Drizzle Mostly clear 8 - - - -
02/09:26am 16.0 NE 7 9 1026.9 - 0.0 Drizzle Mostly clear 8 - - - -
02/09:00am 17.0 CALM 0 0 1026.9 - 0.0 Showers Mostly clear 10 - - - -
02/08:30am 16.6 ENE 5 8 1027.0 - 0.0 Drizzle Mostly clear 8 - - - -
02/08:00am 17.3 ESE 5 6 1026.7 - 0.0 - Mostly clear 10 - - - -
02/07:30am 16.8 ESE 5 5 1026.5 R - Distant precip. Mostly clear 40 - - - -
02/07:00am 16.1 SE 4 5 1026.4 - - - Mostly clear 10 - - - -
02/06:30am 15.4 CALM 0 0 1026.3 - - - Mostly clear 10 - - - -
02/06:00am 14.3 CALM 0 0 1025.9 - - - Mostly clear 10 - - - -
02/05:30am 14.1 SE 2 4 1025.7 - - - - 10 - - - -
02/05:00am 14.2 SE 4 4 1025.4 - - - Partly cloudy 10 - - - -
02/04:30am 14.3 SE 4 5 1025.2 - - - - 10 - - - -
02/04:00am 14.0 SE 4 5 1024.9 - - - - 10 - - - -
02/03:30am 14.0 CALM 0 0 1024.7 - - - - 10 - - - -
02/03:00am 13.9 CALM 0 0 1024.6 - - - - 10 - - - -
02/02:30am 14.0 CALM 0 0 1024.7 - - - - 10 - - - -
02/02:00am 14.5 CALM 0 0 1024.9 - - - - 10 - - - -
02/01:30am 14.5 CALM 0 0 1025.3 - - - - 10 - - - -
02/01:00am 14.1 CALM 0 0 1025.4 - - - - 10 - - - -
02/12:30am 13.6 CALM 0 0 1025.4 - - - - 10 - - - -
02/12:00am 13.7 CALM 0 0 1025.5 - - - - 10 - - - -
 
Date/Time
EST
Temp

°C
Wind Pressure Rain
since 9am
mm
Weather Cloud Vis
km
Sea
Height
m
Swell
Dir
 
Speed
knots
Gust
knots
hPa Trend Height
m
Period
s
Dir
01/11:30pm 13.6 E 4 4 1025.4 - - - - 10 - - - -
01/11:00pm 13.4 CALM 0 3 1025.4 - - - - 10 - - - -
01/10:30pm 14.2 CALM 0 0 1025.6 - - - - 10 - - - -
01/10:00pm 14.4 CALM 0 0 1025.8 - - - - 10 - - - -
01/09:30pm 14.2 CALM 0 0 1025.8 - - - - 10 - - - -
01/09:00pm 14.1 ENE 1 4 1025.4 - - - - 10 - - - -
01/08:30pm 14.2 ENE 4 4 1025.1 - - - - 10 - - - -
01/08:00pm 13.5 NE 5 5 1025.0 - - - - 10 - - - -
01/07:30pm 13.9 ENE 4 5 1024.6 - - - - 10 - - - -
01/07:00pm 13.5 NE 4 5 1024.9 - - - - 10 - - - -
01/06:30pm 14.2 NE 1 3 1024.8 - - - - 10 - - - -
01/06:00pm 13.7 ENE 4 4 1024.6 - - - - 10 - - - -
01/05:30pm 14.1 ENE 3 4 1024.2 - - - - 10 - - - -
01/05:00pm 14.6 ENE 4 5 1023.7 - - - Mostly clear 10 - - - -
01/04:30pm 14.8 ENE 4 5 1023.3 R - Fine Mostly clear 40 - - - -
01/04:00pm 16.0 E 5 6 1023.1 - - - Mostly clear 10 - - - -
01/03:30pm 17.3 E 5 7 1022.9 - - - Mostly clear 10 - - - -
01/03:00pm 16.8 ESE 5 6 1022.9 - - - Mostly clear 10 - - - -
01/02:30pm 17.7 SE 6 7 1022.8 - - - Mostly clear 10 - - - -
01/02:00pm 17.8 E 7 9 1022.9 - - - - 10 - - - -
01/01:30pm 16.9 ESE 4 5 1022.7 R - Distant precip. Mostly clear 40 - - - -
01/01:00pm 17.4 S 5 7 1022.9 - - - Mostly clear 10 - - - -
01/12:30pm 17.5 ESE 5 6 1023.2 - - - Mostly clear 10 - - - -

Other Formats:

Comma delimited format used in spreadsheet applications
http://www.bom.gov.au/fwo/IDN60701/IDN60701.94996.axf

JavaScript Object Notation format (JSON) in row-major order
http://www.bom.gov.au/fwo/IDN60701/IDN60701.94996.json